In Rescue
 
Open Full Screen Window  High Contrast Mode
Wind Gusting 17 knots
12
May 20, 2019 2:25 PM EDT
Weather Information
Wind Direction
  350 °
Wind Speed
  12 kt (14 mph)
Wind Gust
  17 kt (20 mph)
Altimeter
29.95 in
Visibility
10 SM
Temperature
11° C
52° F
Dewpoint
05° C
41° F
Humidity
67%
Sky Condition
Clear
VFR

METAR KSLH 201825Z AUTO 35012G17KT 10SM CLR 11/05 A2995 RMK AO2 T01100048

FAA Disclaimer: The data displayed is for advisory purposes only and is not to be used for flight planning or operations.